Time;durP1;ratioP1;P1;durP2;ratioP2;P2;SDS_P1;SDS_P2;PMS_P1;PMS_P2;Temp;Humidity;BMP_temperature;BMP_pressure;BME280_temperature;BME280_humidity;BME280_pressure;Samples;Min_cycle;Max_cycle;Signal;HPM_P1;HPM_P2
2022/08/07 00:01:40;;;;;;;17.88;14.13;;;;;;;25.14;64.24;100233.09;5016369;28;20018;-83
2022/08/07 00:04:06;;;;;;;18.98;15.10;;;;;;;25.11;64.19;100242.66;5020493;28;20018;-83
2022/08/07 00:06:32;;;;;;;23.80;14.10;;;;;;;25.08;64.67;100240.38;5036160;28;20021;-82
2022/08/07 00:08:58;;;;;;;28.40;15.10;;;;;;;25.02;64.46;100233.03;5018447;28;20105;-82
2022/08/07 00:11:23;;;;;;;20.85;14.40;;;;;;;25.03;64.82;100242.13;5027772;28;20030;-83
2022/08/07 00:13:48;;;;;;;17.55;14.27;;;;;;;25.10;64.45;100240.16;5016882;28;20488;-82
2022/08/07 00:16:14;;;;;;;18.95;14.57;;;;;;;25.11;64.49;100239.91;5015966;28;20432;-82
2022/08/07 00:18:40;;;;;;;15.88;14.18;;;;;;;25.06;64.96;100223.25;5034887;28;20030;-83
2022/08/07 00:21:07;;;;;;;19.73;16.38;;;;;;;25.05;65.48;100228.97;5031353;28;20091;-83
2022/08/07 00:23:34;;;;;;;23.30;14.75;;;;;;;25.18;65.86;100228.81;5016062;28;20081;-83
2022/08/07 00:26:01;;;;;;;17.45;13.90;;;;;;;25.30;66.37;100226.97;5016379;28;20032;-82
2022/08/07 00:28:31;;;;;;;22.13;15.20;;;;;;;25.31;66.63;100217.66;5015962;28;20064;-83
2022/08/07 00:30:57;;;;;;;18.38;14.73;;;;;;;25.32;67.17;100214.66;4999678;28;20025;-82
2022/08/07 00:33:27;;;;;;;17.48;15.60;;;;;;;25.38;67.75;100219.25;5015889;28;20026;-82
2022/08/07 00:35:53;;;;;;;19.65;16.02;;;;;;;25.38;68.02;100211.00;5015603;28;20065;-82
2022/08/07 00:38:19;;;;;;;21.85;16.23;;;;;;;25.40;68.49;100213.53;5015641;28;20397;-82
2022/08/07 00:40:45;;;;;;;20.60;16.10;;;;;;;25.41;69.01;100212.47;5035681;28;20033;-82
2022/08/07 00:43:11;;;;;;;23.70;16.08;;;;;;;25.35;69.39;100213.38;5034495;28;20018;-82
2022/08/07 00:45:39;;;;;;;20.70;16.13;;;;;;;25.37;69.48;100216.75;5035179;28;20021;-83
2022/08/07 00:48:05;;;;;;;19.83;14.95;;;;;;;25.39;69.60;100218.19;5035502;28;20048;-82
2022/08/07 00:50:30;;;;;;;20.90;15.30;;;;;;;25.43;69.74;100215.81;5035331;28;20028;-82
2022/08/07 00:52:56;;;;;;;19.45;16.63;;;;;;;25.36;69.48;100215.06;5019586;28;20022;-82
2022/08/07 00:55:21;;;;;;;22.95;16.33;;;;;;;25.34;69.81;100211.69;4997564;28;20024;-82
2022/08/07 00:57:47;;;;;;;23.55;17.73;;;;;;;25.28;70.27;100207.13;5015759;28;20056;-83
2022/08/07 01:00:14;;;;;;;20.27;17.40;;;;;;;25.28;70.06;100212.63;5020909;28;20475;-82
2022/08/07 01:02:41;;;;;;;20.20;17.55;;;;;;;25.25;70.31;100207.56;5003560;28;20478;-82
2022/08/07 01:05:08;;;;;;;26.05;17.15;;;;;;;25.23;70.50;100215.19;4997849;28;20026;-83
2022/08/07 01:07:34;;;;;;;19.08;16.27;;;;;;;25.14;70.82;100211.06;5015593;28;20184;-83
2022/08/07 01:10:00;;;;;;;28.50;18.45;;;;;;;25.20;71.13;100215.66;5014918;28;20018;-83
2022/08/07 01:12:26;;;;;;;21.15;17.65;;;;;;;25.15;71.80;100219.13;5014883;28;20076;-83
2022/08/07 01:14:52;;;;;;;23.80;18.00;;;;;;;25.18;71.49;100207.66;5014737;28;20022;-82
2022/08/07 01:17:17;;;;;;;27.60;18.92;;;;;;;25.20;71.49;100210.16;5014696;28;20045;-82
2022/08/07 01:19:43;;;;;;;21.65;16.80;;;;;;;25.31;71.77;100212.16;5015382;28;20033;-82
2022/08/07 01:22:10;;;;;;;20.70;17.70;;;;;;;25.21;72.29;100207.19;4997055;28;20056;-82
2022/08/07 01:24:36;;;;;;;25.17;17.67;;;;;;;25.22;72.81;100197.88;5014954;28;20026;-82
2022/08/07 01:27:02;;;;;;;31.88;18.25;;;;;;;25.24;73.22;100208.63;5014373;28;20033;-82
2022/08/07 01:29:29;;;;;;;19.35;16.83;;;;;;;25.21;73.82;100200.84;5014328;28;20025;-82
2022/08/07 01:31:54;;;;;;;24.35;17.15;;;;;;;25.21;74.83;100206.34;5014300;28;20018;-82
2022/08/07 01:34:20;;;;;;;26.50;17.45;;;;;;;25.17;75.57;100213.38;5014668;28;20030;-82
2022/08/07 01:36:47;;;;;;;22.63;17.33;;;;;;;25.07;75.75;100210.34;5016948;28;20119;-82
2022/08/07 01:39:13;;;;;;;29.15;18.20;;;;;;;25.00;76.43;100209.56;5034138;28;20027;-83
2022/08/07 01:41:42;;;;;;;21.20;16.80;;;;;;;25.05;76.34;100212.44;5034014;28;20404;-83
2022/08/07 01:44:08;;;;;;;22.80;17.30;;;;;;;24.98;76.73;100208.97;5007552;28;20030;-82
2022/08/07 01:46:35;;;;;;;27.08;17.80;;;;;;;25.03;77.06;100209.09;5014910;28;20037;-82
2022/08/07 01:49:00;;;;;;;22.17;17.92;;;;;;;25.03;77.31;100211.84;5008208;28;20021;-82
2022/08/07 01:51:27;;;;;;;24.80;15.55;;;;;;;25.01;77.63;100206.59;5007515;28;20033;-83
2022/08/07 01:53:56;;;;;;;23.50;17.20;;;;;;;24.94;77.72;100200.31;5014773;28;20034;-82
2022/08/07 01:56:33;;;;;;;22.38;16.33;;;;;;;24.96;77.51;100208.31;5033308;28;20044;-81
2022/08/07 01:59:14;;;;;;;20.90;16.70;;;;;;;24.96;77.74;100208.31;5035265;28;20025;-81
2022/08/07 02:01:47;;;;;;;21.88;17.85;;;;;;;24.96;76.97;100206.41;5025807;28;20049;-82
2022/08/07 02:04:41;;;;;;;24.38;17.27;;;;;;;24.88;77.51;100202.06;5014623;28;20108;-81
2022/08/07 02:07:10;;;;;;;27.15;17.70;;;;;;;24.81;78.08;100212.28;4994688;28;20042;-81
2022/08/07 02:09:39;;;;;;;25.40;18.23;;;;;;;24.77;78.29;100205.53;4995653;28;20497;-82
2022/08/07 02:12:16;;;;;;;22.08;17.48;;;;;;;24.72;78.71;100205.38;5012388;28;20090;-82
2022/08/07 02:14:50;;;;;;;21.92;18.35;;;;;;;24.67;79.01;100199.72;5016977;28;20029;-82
2022/08/07 02:17:16;;;;;;;23.23;17.58;;;;;;;24.63;79.49;100205.88;5015440;28;20049;-83
2022/08/07 02:19:46;;;;;;;28.55;18.98;;;;;;;24.57;80.02;100212.28;5032587;28;20037;-81
2022/08/07 02:22:13;;;;;;;29.80;19.67;;;;;;;24.52;80.57;100213.00;5025472;28;20427;-82
2022/08/07 02:24:42;;;;;;;30.77;20.63;;;;;;;24.56;81.09;100214.19;4996409;28;20558;-81
2022/08/07 02:27:08;;;;;;;32.70;21.80;;;;;;;24.48;81.71;100206.25;4996499;28;20530;-81
2022/08/07 02:29:38;;;;;;;31.98;21.75;;;;;;;24.45;82.72;100201.19;5013941;28;20053;-82
2022/08/07 02:32:05;;;;;;;31.95;22.00;;;;;;;24.40;83.15;100214.78;5013740;28;20171;-82
2022/08/07 02:34:32;;;;;;;32.08;23.65;;;;;;;24.38;83.77;100217.75;4996056;28;20030;-82
2022/08/07 02:37:00;;;;;;;43.65;23.38;;;;;;;24.31;84.44;100216.13;5023176;28;20021;-82
2022/08/07 02:39:27;;;;;;;29.45;22.25;;;;;;;24.25;84.73;100220.59;4995586;28;20036;-82
2022/08/07 02:41:53;;;;;;;33.10;22.98;;;;;;;24.25;84.85;100219.75;5013300;28;20026;-81
2022/08/07 02:44:20;;;;;;;29.05;23.33;;;;;;;24.15;85.06;100216.66;5012577;28;20034;-81
2022/08/07 02:46:47;;;;;;;31.98;22.45;;;;;;;24.08;85.45;100210.34;4995826;28;20046;-81
2022/08/07 02:49:13;;;;;;;33.53;23.10;;;;;;;24.04;85.26;100206.34;5012448;28;20054;-82
2022/08/07 02:51:41;;;;;;;30.25;21.73;;;;;;;23.97;85.06;100217.41;5012082;28;20128;-81
2022/08/07 02:54:10;;;;;;;30.58;22.10;;;;;;;23.95;85.10;100202.19;5012609;28;20034;-81
2022/08/07 02:56:38;;;;;;;37.20;21.77;;;;;;;23.88;85.57;100215.16;5012870;28;20492;-82
2022/08/07 02:59:09;;;;;;;31.42;20.23;;;;;;;23.94;86.00;100200.53;4979672;28;20563;-82
2022/08/07 03:01:37;;;;;;;28.88;20.63;;;;;;;23.96;86.17;100210.22;4979888;28;20060;-81
2022/08/07 03:04:06;;;;;;;28.95;21.33;;;;;;;23.96;85.95;100204.72;4996254;28;20025;-81
2022/08/07 03:06:33;;;;;;;30.98;22.35;;;;;;;23.99;85.70;100217.16;5024661;28;20021;-81
2022/08/07 03:09:03;;;;;;;29.20;20.80;;;;;;;23.97;86.03;100213.81;4983479;28;20488;-82
2022/08/07 03:11:31;;;;;;;32.35;24.17;;;;;;;23.95;85.93;100222.25;5000819;28;20088;-82
2022/08/07 03:13:57;;;;;;;34.35;21.50;;;;;;;23.92;85.96;100211.72;5016979;28;20373;-82
2022/08/07 03:16:23;;;;;;;35.30;23.70;;;;;;;23.94;85.66;100217.00;4983042;28;20037;-82
2022/08/07 03:18:50;;;;;;;29.98;22.20;;;;;;;23.92;85.43;100219.09;4999414;28;20092;-82
2022/08/07 03:21:16;;;;;;;29.23;21.88;;;;;;;23.91;85.38;100212.81;5016620;28;20132;-82
2022/08/07 03:23:44;;;;;;;27.40;21.20;;;;;;;23.95;84.79;100225.00;5016343;28;20080;-82
2022/08/07 03:26:16;;;;;;;28.27;19.67;;;;;;;23.96;84.66;100223.09;5018913;28;20480;-82
2022/08/07 03:28:44;;;;;;;31.80;20.77;;;;;;;24.02;83.87;100233.22;5018191;28;20059;-82
2022/08/07 03:31:18;;;;;;;29.33;21.17;;;;;;;23.95;83.86;100224.16;4988819;28;20493;-82
2022/08/07 03:33:46;;;;;;;27.88;21.70;;;;;;;23.93;84.06;100218.91;5028717;28;20084;-81
2022/08/07 03:36:13;;;;;;;27.95;20.92;;;;;;;23.96;84.36;100232.19;4994918;28;20029;-82
2022/08/07 03:38:40;;;;;;;26.92;19.80;;;;;;;23.93;84.64;100234.53;5033092;28;20025;-81
2022/08/07 03:41:06;;;;;;;29.65;22.35;;;;;;;23.90;84.31;100224.84;5018056;28;20026;-81
2022/08/07 03:43:33;;;;;;;34.45;22.13;;;;;;;24.03;84.22;100244.00;4999427;28;20550;-82
2022/08/07 03:46:01;;;;;;;27.35;20.60;;;;;;;24.03;83.58;100237.66;5016585;28;20036;-82
2022/08/07 03:48:28;;;;;;;26.60;19.90;;;;;;;24.10;83.78;100235.69;4999427;28;20092;-83
2022/08/07 03:50:55;;;;;;;26.83;20.20;;;;;;;24.05;83.59;100243.75;5017556;28;20535;-83
2022/08/07 03:53:22;;;;;;;24.75;18.92;;;;;;;24.08;83.66;100240.56;5018382;28;20038;-82
2022/08/07 03:55:49;;;;;;;27.25;20.73;;;;;;;24.12;83.32;100247.34;5018311;28;20060;-81
2022/08/07 03:58:18;;;;;;;28.30;20.40;;;;;;;24.13;82.95;100235.28;5002786;28;20067;-81
2022/08/07 04:00:45;;;;;;;27.77;18.35;;;;;;;24.18;82.42;100243.72;5035337;28;20446;-82
2022/08/07 04:03:13;;;;;;;22.33;16.65;;;;;;;24.19;81.90;100239.88;5031636;28;20025;-82
2022/08/07 04:05:39;;;;;;;28.45;17.65;;;;;;;24.24;81.59;100235.41;5016267;28;20026;-82
2022/08/07 04:08:05;;;;;;;22.75;15.77;;;;;;;24.29;80.63;100235.56;5016641;28;20726;-82
2022/08/07 04:10:32;;;;;;;25.23;15.73;;;;;;;24.35;79.74;100242.09;4998753;28;20021;-82
2022/08/07 04:12:58;;;;;;;20.65;15.73;;;;;;;24.35;79.09;100233.84;4999262;28;20053;-82
2022/08/07 04:15:26;;;;;;;19.27;15.40;;;;;;;24.36;78.54;100236.38;4999302;28;20025;-82
2022/08/07 04:17:52;;;;;;;36.25;20.65;;;;;;;24.36;78.43;100230.88;5031382;28;20060;-82
2022/08/07 04:20:18;;;;;;;19.08;15.25;;;;;;;24.46;77.88;100246.88;5036778;28;20029;-82
2022/08/07 04:22:45;;;;;;;29.65;14.65;;;;;;;24.49;77.61;100242.84;5019247;28;20081;-83
2022/08/07 04:25:11;;;;;;;22.77;14.95;;;;;;;24.52;77.60;100243.22;5003850;28;20033;-82
2022/08/07 04:27:37;;;;;;;23.10;14.05;;;;;;;24.55;77.31;100237.28;4983074;28;20146;-83
2022/08/07 04:30:05;;;;;;;39.10;23.55;;;;;;;24.60;76.32;100239.34;5016561;28;20053;-83
2022/08/07 04:32:32;;;;;;;21.30;16.45;;;;;;;24.69;76.23;100246.25;5017068;28;20030;-84
2022/08/07 04:35:00;;;;;;;22.75;16.63;;;;;;;24.71;76.14;100244.94;5016346;28;20080;-82
2022/08/07 04:37:25;;;;;;;25.45;16.02;;;;;;;24.72;75.69;100241.13;5034761;28;20116;-83
2022/08/07 04:39:51;;;;;;;17.67;13.13;;;;;;;24.73;75.00;100237.31;5018489;28;20053;-82
2022/08/07 04:42:16;;;;;;;26.25;12.55;;;;;;;24.81;74.14;100228.81;5017847;28;20040;-83
2022/08/07 04:44:42;;;;;;;20.17;13.27;;;;;;;24.86;73.25;100234.44;5002359;28;20021;-84
2022/08/07 04:47:18;;;;;;;16.73;12.57;;;;;;;24.92;71.74;100244.56;5035874;28;20021;-84
2022/08/07 04:50:01;;;;;;;17.83;10.60;;;;;;;25.01;71.03;100239.63;5018269;28;20036;-82
2022/08/07 04:52:38;;;;;;;22.48;12.65;;;;;;;25.11;69.25;100241.81;4999086;28;20031;-83
2022/08/07 04:55:33;;;;;;;13.40;10.25;;;;;;;25.20;68.29;100240.44;4998502;28;20033;-82
2022/08/07 04:58:25;;;;;;;15.57;10.10;;;;;;;25.26;67.43;100245.03;5015590;28;20018;-81
2022/08/07 05:00:56;;;;;;;18.08;10.95;;;;;;;25.37;67.17;100249.78;5015894;28;20468;-82
2022/08/07 05:03:33;;;;;;;20.45;11.18;;;;;;;25.44;67.15;100250.56;5015685;28;20073;-82
2022/08/07 05:06:11;;;;;;;22.60;10.73;;;;;;;25.57;66.81;100244.88;4998593;28;20403;-82
2022/08/07 05:08:51;;;;;;;20.05;10.85;;;;;;;25.64;66.51;100250.31;4983160;28;20026;-82
2022/08/07 05:11:26;;;;;;;38.97;25.27;;;;;;;25.74;65.50;100251.47;4998616;28;20022;-82
2022/08/07 05:13:58;;;;;;;25.92;11.07;;;;;;;25.79;65.02;100253.50;4978482;28;20066;-83
2022/08/07 05:16:29;;;;;;;18.25;9.75;;;;;;;25.90;64.54;100247.22;4996484;28;20497;-82
2022/08/07 05:19:00;;;;;;;12.35;10.18;;;;;;;25.97;64.14;100245.19;4997653;28;20087;-83
2022/08/07 05:21:27;;;;;;;37.50;11.93;;;;;;;26.06;64.32;100253.97;5014713;28;20034;-82
2022/08/07 05:24:02;;;;;;;14.82;10.07;;;;;;;26.15;64.04;100249.78;4997522;28;20025;-83
2022/08/07 05:26:32;;;;;;;38.50;9.65;;;;;;;26.23;63.67;100255.03;5009209;28;20052;-83
2022/08/07 05:29:01;;;;;;;13.27;9.48;;;;;;;26.33;63.02;100244.22;4978614;28;20404;-83
2022/08/07 05:31:34;;;;;;;15.23;9.80;;;;;;;26.44;62.37;100251.72;5008582;28;20021;-84
2022/08/07 05:34:01;;;;;;;16.98;9.10;;;;;;;26.56;62.04;100249.81;4996771;28;20037;-83
2022/08/07 05:36:30;;;;;;;13.30;8.73;;;;;;;26.62;62.30;100248.84;5004623;28;20171;-83
2022/08/07 05:38:56;;;;;;;15.27;9.05;;;;;;;26.69;62.37;100257.88;5018615;28;20034;-85
2022/08/07 05:41:22;;;;;;;19.48;9.80;;;;;;;26.82;62.20;100249.38;5027054;28;20036;-84
2022/08/07 05:43:50;;;;;;;13.80;9.23;;;;;;;26.94;62.34;100264.00;5034830;28;20021;-83
2022/08/07 05:46:18;;;;;;;29.20;9.88;;;;;;;26.98;63.11;100264.38;5001336;28;20444;-83
2022/08/07 05:48:44;;;;;;;26.55;10.02;;;;;;;27.03;63.27;100267.25;5007436;28;20037;-83
2022/08/07 05:51:13;;;;;;;14.45;9.30;;;;;;;27.06;63.06;100260.41;5015381;28;20084;-83
2022/08/07 05:53:39;;;;;;;19.30;9.30;;;;;;;27.13;62.66;100266.63;5014490;28;20028;-83
2022/08/07 05:56:05;;;;;;;14.90;9.68;;;;;;;27.15;62.86;100258.97;4997110;28;20486;-83
2022/08/07 05:58:31;;;;;;;25.05;10.70;;;;;;;27.20;62.97;100264.59;5020766;28;20021;-83
2022/08/07 06:00:59;;;;;;;23.30;10.23;;;;;;;27.28;62.74;100278.03;5005671;28;20033;-83
2022/08/07 06:03:28;;;;;;;12.63;9.90;;;;;;;27.42;61.59;100268.41;4980680;28;20456;-84
2022/08/07 06:05:54;;;;;;;16.90;9.70;;;;;;;27.46;60.88;100277.94;4997340;28;20034;-84
2022/08/07 06:08:20;;;;;;;18.33;10.57;;;;;;;27.50;60.91;100270.81;4983151;28;20501;-84
2022/08/07 06:10:46;;;;;;;22.30;10.20;;;;;;;27.49;61.16;100266.38;5016041;28;20025;-83
2022/08/07 06:13:12;;;;;;;21.83;9.95;;;;;;;27.58;61.02;100267.69;5015851;28;20036;-84
2022/08/07 06:15:39;;;;;;;23.25;9.50;;;;;;;27.65;60.85;100265.59;4984649;28;20030;-83
2022/08/07 06:18:06;;;;;;;15.15;10.27;;;;;;;27.78;60.22;100272.78;5013510;28;20105;-83
2022/08/07 06:20:34;;;;;;;24.20;10.48;;;;;;;27.87;60.07;100272.16;4995196;28;20030;-82
2022/08/07 06:23:03;;;;;;;15.63;9.38;;;;;;;27.98;59.54;100262.94;4996326;28;20029;-83
2022/08/07 06:25:29;;;;;;;17.00;9.93;;;;;;;27.97;59.95;100264.06;5013230;28;20087;-82
2022/08/07 06:28:06;;;;;;;25.15;9.68;;;;;;;28.11;59.56;100275.66;4995466;28;20030;-84
2022/08/07 06:30:34;;;;;;;18.60;10.27;;;;;;;28.16;59.65;100266.66;4992398;28;20101;-82
2022/08/07 06:33:00;;;;;;;23.25;10.07;;;;;;;28.20;59.70;100270.56;4997633;28;20033;-83
2022/08/07 06:35:26;;;;;;;17.17;9.00;;;;;;;28.27;58.90;100274.88;4997597;28;20030;-85
2022/08/07 06:37:52;;;;;;;23.33;8.98;;;;;;;28.41;58.16;100280.91;5023308;28;20415;-83
2022/08/07 06:40:17;;;;;;;14.27;8.73;;;;;;;28.39;58.13;100274.81;5032304;28;20032;-84
2022/08/07 06:42:45;;;;;;;20.60;9.30;;;;;;;28.43;58.56;100279.59;5015612;28;20025;-83
2022/08/07 06:45:15;;;;;;;17.60;7.93;;;;;;;28.49;58.52;100278.59;5026183;28;20113;-84
2022/08/07 06:47:41;;;;;;;24.35;10.50;;;;;;;28.52;58.65;100282.78;5016047;28;20030;-81
2022/08/07 06:50:08;;;;;;;20.65;9.93;;;;;;;28.65;59.46;100271.44;5032692;28;20380;-83
2022/08/07 06:52:36;;;;;;;23.38;10.00;;;;;;;28.69;59.86;100283.66;4994113;28;20049;-82
2022/08/07 06:55:15;;;;;;;19.48;9.10;;;;;;;28.78;59.68;100275.75;4995009;28;20053;-83
2022/08/07 06:57:43;;;;;;;16.15;9.45;;;;;;;28.83;59.99;100273.09;5012652;28;20464;-83
2022/08/07 07:00:10;;;;;;;21.90;9.65;;;;;;;28.87;60.23;100280.63;4995791;28;20101;-82
2022/08/07 07:02:38;;;;;;;18.63;9.30;;;;;;;28.87;59.70;100272.31;4979141;28;20038;-83
2022/08/07 07:05:04;;;;;;;17.92;8.43;;;;;;;28.99;59.35;100273.06;5007543;28;20030;-83
2022/08/07 07:07:30;;;;;;;43.28;10.90;;;;;;;29.05;59.53;100276.78;5015494;28;20452;-82
2022/08/07 07:09:56;;;;;;;27.45;11.38;;;;;;;29.12;59.93;100282.94;5032751;28;20060;-83
2022/08/07 07:12:36;;;;;;;15.23;10.77;;;;;;;29.09;60.07;100280.69;4999678;28;20497;-83
2022/08/07 07:15:23;;;;;;;31.92;10.60;;;;;;;29.15;60.18;100286.06;5013395;28;20029;-82
2022/08/07 07:17:56;;;;;;;15.10;9.38;;;;;;;29.15;59.83;100277.75;5012404;28;20049;-83
2022/08/07 07:20:31;;;;;;;30.55;10.05;;;;;;;29.21;59.97;100283.34;5013702;28;20109;-83
2022/08/07 07:22:57;;;;;;;22.90;9.25;;;;;;;29.21;60.68;100280.56;5009424;28;20109;-83
2022/08/07 07:25:23;;;;;;;16.85;9.07;;;;;;;29.30;60.49;100279.06;4995637;28;20113;-82
2022/08/07 07:27:55;;;;;;;23.63;11.00;;;;;;;29.34;60.67;100280.25;5011510;28;20487;-83
2022/08/07 07:30:28;;;;;;;24.77;9.95;;;;;;;29.40;59.64;100282.00;5012238;28;20575;-83
2022/08/07 07:32:59;;;;;;;16.00;9.35;;;;;;;29.46;59.64;100289.28;5010754;28;20512;-83
2022/08/07 07:35:25;;;;;;;12.45;8.30;;;;;;;29.43;59.79;100287.88;4994999;28;20037;-83
2022/08/07 07:37:54;;;;;;;25.40;9.77;;;;;;;29.52;59.94;100279.94;4995727;28;20034;-82
2022/08/07 07:40:21;;;;;;;20.23;8.70;;;;;;;29.52;59.20;100286.34;4995230;28;20018;-82
2022/08/07 07:42:52;;;;;;;18.67;9.00;;;;;;;29.61;58.04;100290.34;4995635;28;20030;-83
2022/08/07 07:45:20;;;;;;;19.38;7.35;;;;;;;29.81;58.60;100292.53;5012751;28;20080;-83
2022/08/07 07:47:48;;;;;;;36.25;9.48;;;;;;;29.84;58.72;100286.50;4995143;28;20056;-81
2022/08/07 07:50:17;;;;;;;32.45;12.00;;;;;;;29.98;58.43;100298.00;4995567;28;20480;-83
2022/08/07 07:52:44;;;;;;;22.30;9.48;;;;;;;30.14;57.49;100305.41;4965611;28;20034;-82
2022/08/07 07:55:12;;;;;;;17.95;7.88;;;;;;;30.26;54.60;100295.00;5016146;28;20102;-83
2022/08/07 07:57:39;;;;;;;25.48;8.63;;;;;;;30.44;54.02;100303.00;4997252;28;20025;-83
2022/08/07 08:00:06;;;;;;;17.33;7.65;;;;;;;30.57;53.10;100285.91;5015919;28;20029;-82
2022/08/07 08:02:34;;;;;;;30.17;8.18;;;;;;;30.73;51.64;100295.22;5015076;28;20022;-83
2022/08/07 08:05:03;;;;;;;16.13;8.25;;;;;;;30.80;51.50;100295.81;5015639;28;20026;-84
2022/08/07 08:07:31;;;;;;;17.15;7.57;;;;;;;30.91;51.44;100291.19;5003532;28;20026;-83
2022/08/07 08:09:58;;;;;;;15.77;8.57;;;;;;;31.04;51.28;100297.13;5001958;28;20022;-84
2022/08/07 08:12:24;;;;;;;21.10;9.07;;;;;;;31.10;50.35;100301.63;4975273;28;20042;-83
2022/08/07 08:14:50;;;;;;;19.95;7.65;;;;;;;31.19;49.12;100300.00;5010881;28;20174;-82
2022/08/07 08:17:16;;;;;;;13.82;7.15;;;;;;;31.20;48.75;100309.19;5014903;28;20081;-82
2022/08/07 08:19:45;;;;;;;23.60;8.73;;;;;;;31.33;47.50;100288.44;5035614;28;20116;-83
2022/08/07 08:27:42;;;;;;;19.67;7.28;;;;;;;31.47;46.82;100284.88;5048457;28;20045;-83
2022/08/07 08:30:12;;;;;;;23.77;7.15;;;;;;;31.50;46.37;100284.38;5035193;28;20056;-82
2022/08/07 08:33:01;;;;;;;10.00;6.82;;;;;;;31.61;47.02;100280.56;5017533;28;20518;-83
2022/08/07 08:35:28;;;;;;;28.35;8.32;;;;;;;31.77;46.92;100290.63;5027023;28;20030;-83
2022/08/07 08:38:00;;;;;;;15.35;6.80;;;;;;;31.88;47.22;100299.84;5015282;28;20061;-83
2022/08/07 08:40:39;;;;;;;14.75;7.22;;;;;;;31.96;47.09;100298.47;5013620;28;20095;-83
2022/08/07 08:43:07;;;;;;;13.00;5.82;;;;;;;32.00;45.55;100294.88;5027608;28;20036;-83
2022/08/07 08:45:52;;;;;;;12.73;6.70;;;;;;;31.98;45.73;100290.72;5034783;28;20025;-83
2022/08/07 08:48:39;;;;;;;17.15;6.43;;;;;;;31.85;45.87;100274.53;5015954;28;20429;-84
2022/08/07 08:51:23;;;;;;;122.22;21.10;;;;;;;31.96;47.43;100304.88;5028100;28;20029;-83
2022/08/07 08:54:19;;;;;;;12.63;6.30;;;;;;;32.01;46.59;100291.00;5035235;28;20045;-82
2022/08/07 08:56:48;;;;;;;24.88;7.22;;;;;;;32.13;47.67;100288.84;5000844;28;20116;-82
2022/08/07 08:59:36;;;;;;;29.00;7.85;;;;;;;32.11;48.30;100279.91;5035351;28;20072;-82
2022/08/07 09:02:40;;;;;;;10.35;5.78;;;;;;;32.15;48.29;100292.16;5004210;28;20117;-82
2022/08/07 09:05:37;;;;;;;13.30;6.75;;;;;;;32.05;48.67;100296.91;4991333;28;20035;-80
2022/08/07 09:08:09;;;;;;;21.20;7.35;;;;;;;32.11;48.41;100296.59;5016978;28;20124;-85
2022/08/07 09:10:43;;;;;;;16.90;6.55;;;;;;;32.18;48.43;100288.84;5018431;28;20034;-85
2022/08/07 09:13:36;;;;;;;63.13;8.63;;;;;;;32.19;47.93;100298.03;5018641;28;20506;-85
2022/08/07 09:16:11;;;;;;;11.35;6.03;;;;;;;32.12;47.84;100292.72;4998556;28;20031;-87
2022/08/07 09:18:42;;;;;;;15.65;7.68;;;;;;;32.16;47.91;100295.78;5012138;28;20110;-83
2022/08/07 09:21:31;;;;;;;24.42;7.63;;;;;;;32.15;47.53;100292.16;4988982;28;20030;-86
2022/08/07 09:24:21;;;;;;;16.75;6.00;;;;;;;32.13;47.96;100288.84;5010640;28;20109;-86
2022/08/07 09:26:55;;;;;;;40.78;7.80;;;;;;;32.15;47.84;100286.59;4995786;28;20030;-85
2022/08/07 09:29:42;;;;;;;19.17;6.55;;;;;;;32.15;47.80;100289.38;4978175;28;20027;-86
2022/08/07 09:32:20;;;;;;;20.88;7.30;;;;;;;32.25;47.93;100292.19;4977900;28;20125;-87
2022/08/07 09:35:09;;;;;;;22.63;7.38;;;;;;;32.25;47.76;100297.78;5002028;28;20026;-87
2022/08/07 09:37:44;;;;;;;21.92;7.50;;;;;;;32.35;47.75;100296.97;4989721;28;20036;-85
2022/08/07 09:40:23;;;;;;;14.48;5.93;;;;;;;32.29;47.83;100298.88;4985336;28;20062;-78
2022/08/07 09:43:08;;;;;;;18.08;7.00;;;;;;;32.30;47.56;100289.41;5013615;28;20399;-78
2022/08/07 09:45:50;;;;;;;13.18;6.63;;;;;;;32.35;47.17;100283.84;4993619;28;20425;-86
2022/08/07 09:48:34;;;;;;;13.80;6.43;;;;;;;32.37;47.56;100288.31;4994367;28;20042;-79
2022/08/07 09:51:15;;;;;;;24.08;6.57;;;;;;;32.51;47.61;100283.88;4976440;28;20033;-79
2022/08/07 09:53:44;;;;;;;31.58;6.95;;;;;;;32.58;47.02;100290.03;5012095;28;20034;-77
2022/08/07 09:56:13;;;;;;;17.35;6.18;;;;;;;32.58;46.84;100306.75;4980559;28;20034;-81
2022/08/07 09:58:58;;;;;;;20.50;6.38;;;;;;;32.60;45.24;100296.19;4998235;28;20105;-82
2022/08/07 10:01:46;;;;;;;28.80;6.22;;;;;;;32.67;45.37;100289.22;4995537;28;20049;-84
2022/08/07 10:04:39;;;;;;;23.23;6.80;;;;;;;32.68;45.31;100284.47;4995268;28;20022;-84
2022/08/07 10:07:50;;;;;;;17.80;5.55;;;;;;;32.68;45.09;100292.84;4994275;28;20424;-84
2022/08/07 10:10:41;;;;;;;15.95;5.95;;;;;;;32.67;44.54;100289.22;4978312;28;20501;-81
2022/08/07 10:13:28;;;;;;;22.38;5.05;;;;;;;32.71;44.67;100283.91;4978332;28;20517;-84
2022/08/07 10:16:26;;;;;;;11.73;5.90;;;;;;;32.84;44.35;100288.94;4998378;28;20084;-82
2022/08/07 10:19:27;;;;;;;13.45;5.28;;;;;;;32.87;43.16;100293.94;4991997;28;20038;-81
2022/08/07 10:22:31;;;;;;;14.02;4.90;;;;;;;33.03;42.33;100276.06;4939946;28;20041;-80
2022/08/07 10:24:59;;;;;;;10.88;4.40;;;;;;;33.17;41.61;100281.97;4993217;28;20481;-85
2022/08/07 10:27:49;;;;;;;21.25;5.70;;;;;;;33.17;41.10;100277.22;5009816;28;20044;-86
2022/08/07 10:30:24;;;;;;;17.90;5.45;;;;;;;33.32;41.19;100284.72;4995071;28;20032;-87
2022/08/07 10:33:04;;;;;;;16.33;5.05;;;;;;;33.39;39.76;100279.69;5001051;28;20029;-87
2022/08/07 10:35:59;;;;;;;7.53;4.78;;;;;;;33.37;39.98;100271.59;4995207;28;20446;-86
2022/08/07 10:39:03;;;;;;;19.00;4.85;;;;;;;33.40;39.18;100279.38;4994972;28;20030;-88
2022/08/07 10:41:39;;;;;;;18.23;4.45;;;;;;;33.42;39.04;100279.91;4994774;28;20030;-87
2022/08/07 10:44:38;;;;;;;10.95;5.13;;;;;;;33.42;38.93;100282.72;4994330;28;20030;-85
2022/08/07 10:47:35;;;;;;;33.38;5.45;;;;;;;33.48;38.32;100266.81;4994636;28;20030;-87
2022/08/07 10:50:20;;;;;;;12.90;4.32;;;;;;;33.54;37.84;100281.56;4976347;28;20116;-90
2022/08/07 10:53:06;;;;;;;20.10;4.82;;;;;;;33.57;37.84;100270.69;4958324;28;20039;-91
2022/08/07 10:55:52;;;;;;;13.60;4.00;;;;;;;33.68;37.94;100266.75;4995101;28;20030;-89
2022/08/07 10:58:37;;;;;;;15.10;3.78;;;;;;;33.62;37.26;100269.84;4996089;28;20038;-91
2022/08/07 11:01:26;;;;;;;14.25;4.47;;;;;;;33.60;37.31;100266.53;4995277;28;20026;-91
2022/08/07 11:04:22;;;;;;;6.32;3.88;;;;;;;33.60;37.50;100266.53;5001250;28;20096;-88
2022/08/07 11:06:54;;;;;;;9.77;4.25;;;;;;;33.66;37.66;100276.53;4997301;28;20543;-89
2022/08/07 11:09:27;;;;;;;15.05;4.22;;;;;;;33.78;37.83;100271.47;4997485;28;20037;-89
2022/08/07 11:12:16;;;;;;;7.97;3.97;;;;;;;33.78;37.63;100265.88;5014376;28;20033;-85
2022/08/07 11:15:11;;;;;;;32.35;6.28;;;;;;;33.86;37.13;100268.06;5011224;28;20045;-89
2022/08/07 11:17:46;;;;;;;21.05;5.25;;;;;;;33.91;36.50;100265.25;5026538;28;20037;-88
2022/08/07 11:20:46;;;;;;;11.18;4.18;;;;;;;33.87;36.64;100264.16;5016631;28;20056;-88
2022/08/07 11:24:07;;;;;;;8.68;3.90;;;;;;;34.05;35.69;100257.91;5015913;28;20480;-88
2022/08/07 11:26:37;;;;;;;19.85;4.15;;;;;;;34.05;35.61;100263.50;5017960;28;20041;-89
2022/08/07 11:29:12;;;;;;;13.73;3.95;;;;;;;34.03;36.04;100257.38;5019771;28;20026;-89
2022/08/07 11:31:47;;;;;;;15.93;4.93;;;;;;;34.10;36.10;100265.44;5020654;28;20025;-88
2022/08/07 11:34:49;;;;;;;12.95;3.60;;;;;;;34.04;35.35;100253.44;5019281;28;20052;-88
2022/08/07 11:37:20;;;;;;;12.38;3.42;;;;;;;34.07;35.70;100255.66;5020533;28;20064;-88
2022/08/07 11:40:20;;;;;;;11.27;3.53;;;;;;;34.11;34.94;100259.59;5019558;28;20400;-88
2022/08/07 11:43:10;;;;;;;17.33;3.38;;;;;;;34.09;34.32;100250.66;5037223;28;20423;-88